01ME weather

Public forecast

Using degrees Fahrenheit for public forecast. Weather courtesy of forecast.io.

Closest aviation weather report (METAR) to Saint Peter's Seaplane Base

Closest report is Presque Isle International Airport, 19.5 nm (36.1 km) ESE. Retrieved 2020/08/14 09:56 UTC (45 minutes ago):

KPQI 140956Z AUTO 00000KT 10SM CLR 12/11 A3012 RMK AO2 SLP224 T01170106

Closest aviation forecast (TAF) to Saint Peter's Seaplane Base

Closest forecast is Presque Isle International Airport, 19.5 nm (36.1 km) ESE. Retrieved 2020/08/14 06:22 UTC (4 hours ago):

TAF KPQI 140520Z 1406/1506 00000KT P6SM FEW090 FM141700 01006KT P6SM SCT050 FM150100 08006KT P6SM FEW050